createdAt,value
2022-11-08T00:00:14.113Z,10.20
2022-11-08T00:02:41.282Z,10.10
2022-11-08T00:05:27.158Z,10.00
2022-11-08T00:08:12.642Z,10.00
2022-11-08T00:10:58.123Z,10.00
2022-11-08T00:13:43.515Z,9.90
2022-11-08T00:16:10.612Z,9.90
2022-11-08T00:18:37.554Z,9.90
2022-11-08T00:21:04.526Z,9.90
2022-11-08T00:23:31.518Z,9.90
2022-11-08T00:25:58.607Z,9.90
2022-11-08T00:28:25.584Z,9.90
2022-11-08T00:30:52.546Z,9.80
2022-11-08T00:33:19.510Z,9.80
2022-11-08T00:35:46.454Z,9.80
2022-11-08T00:38:13.926Z,9.80
2022-11-08T00:40:40.973Z,9.80
2022-11-08T00:43:07.923Z,9.80
2022-11-08T00:45:34.899Z,9.80
2022-11-08T00:48:01.838Z,9.80
2022-11-08T00:50:28.817Z,9.80
2022-11-08T00:52:55.744Z,9.80
2022-11-08T00:55:22.769Z,9.80
2022-11-08T00:58:04.675Z,9.80
2022-11-08T01:00:31.703Z,9.70
2022-11-08T01:03:17.411Z,9.70
2022-11-08T01:05:44.406Z,9.70
2022-11-08T01:08:12.759Z,9.70
2022-11-08T01:10:44.096Z,9.70
2022-11-08T01:13:11.873Z,9.70
2022-11-08T01:15:41.087Z,9.60
2022-11-08T01:18:09.793Z,9.60
2022-11-08T01:20:44.637Z,9.60
2022-11-08T01:23:12.605Z,9.60
2022-11-08T01:25:41.928Z,9.50
2022-11-08T01:28:09.576Z,9.60
2022-11-08T01:30:38.229Z,9.50
2022-11-08T01:33:05.734Z,9.50
2022-11-08T01:35:34.209Z,9.50
2022-11-08T01:38:01.647Z,9.50
2022-11-08T01:40:29.363Z,9.40
2022-11-08T01:42:56.403Z,9.40
2022-11-08T01:46:01.048Z,9.30
2022-11-08T01:48:29.193Z,9.30
2022-11-08T01:50:59.583Z,9.30
2022-11-08T01:53:28.434Z,9.30
2022-11-08T01:55:56.434Z,9.30
2022-11-08T01:58:27.721Z,9.30
2022-11-08T02:00:54.724Z,9.20
2022-11-08T02:03:22.989Z,9.20
2022-11-08T02:05:49.998Z,9.20
2022-11-08T02:08:29.013Z,9.10
2022-11-08T02:10:56.194Z,9.10
2022-11-08T02:13:26.686Z,9.10
2022-11-08T02:15:53.640Z,9.10
2022-11-08T02:18:22.952Z,9.10
2022-11-08T02:20:49.871Z,9.10
2022-11-08T02:23:29.863Z,9.00
2022-11-08T02:25:56.963Z,9.00
2022-11-08T02:28:23.984Z,9.00
2022-11-08T02:30:50.926Z,9.00
2022-11-08T02:33:21.058Z,9.00
2022-11-08T02:35:51.784Z,8.90
2022-11-08T02:38:19.640Z,8.90
2022-11-08T02:40:55.210Z,8.90
2022-11-08T02:43:23.324Z,8.90
2022-11-08T02:45:51.130Z,8.90
2022-11-08T02:48:19.723Z,8.90
2022-11-08T02:50:47.395Z,8.90
2022-11-08T02:53:14.363Z,8.90
2022-11-08T02:55:41.696Z,8.90
2022-11-08T02:58:09.173Z,8.90
2022-11-08T03:00:36.129Z,8.90
2022-11-08T03:03:03.479Z,8.90
2022-11-08T03:05:31.020Z,8.90
2022-11-08T03:07:58.437Z,9.00
2022-11-08T03:10:27.138Z,9.00
2022-11-08T03:13:02.857Z,9.00
2022-11-08T03:15:30.295Z,9.00
2022-11-08T03:17:58.527Z,9.00
2022-11-08T03:20:31.133Z,9.00
2022-11-08T03:23:01.414Z,9.00
2022-11-08T03:25:28.750Z,9.00
2022-11-08T03:27:55.753Z,9.00
2022-11-08T03:30:22.765Z,9.00
2022-11-08T03:32:52.614Z,9.00
2022-11-08T03:35:20.401Z,9.00
2022-11-08T03:37:53.739Z,8.90
2022-11-08T03:40:21.443Z,8.90
2022-11-08T03:42:48.862Z,8.90
2022-11-08T03:45:16.342Z,8.90
2022-11-08T03:47:45.014Z,8.90
2022-11-08T03:50:13.692Z,8.80
2022-11-08T03:52:45.457Z,8.80
2022-11-08T03:55:13.269Z,8.80
2022-11-08T03:57:41.213Z,8.80
2022-11-08T04:00:10.118Z,8.80
2022-11-08T04:02:40.119Z,8.80
2022-11-08T04:05:09.223Z,8.80
2022-11-08T04:07:36.669Z,8.80
2022-11-08T04:10:09.105Z,8.70
2022-11-08T04:12:58.440Z,8.70
2022-11-08T04:15:25.852Z,8.80
2022-11-08T04:18:12.844Z,8.70
2022-11-08T04:21:00.185Z,8.80
2022-11-08T04:23:28.107Z,8.80
2022-11-08T04:25:57.430Z,8.80
2022-11-08T04:28:29.823Z,8.80
2022-11-08T04:30:59.393Z,8.80
2022-11-08T04:33:26.984Z,8.70
2022-11-08T04:35:54.223Z,8.70
2022-11-08T04:38:21.743Z,8.70
2022-11-08T04:40:49.168Z,8.70
2022-11-08T04:43:16.167Z,8.70
2022-11-08T04:45:43.112Z,8.70
2022-11-08T04:48:10.184Z,8.70
2022-11-08T04:50:37.150Z,8.70
2022-11-08T04:53:04.515Z,8.70
2022-11-08T04:55:31.553Z,8.60
2022-11-08T04:57:59.218Z,8.60
2022-11-08T05:00:26.707Z,8.60
2022-11-08T05:02:54.268Z,8.60
2022-11-08T05:05:21.655Z,8.60
2022-11-08T05:07:48.720Z,8.60
2022-11-08T05:10:15.722Z,8.60
2022-11-08T05:12:42.741Z,8.60
2022-11-08T05:15:10.120Z,8.60
2022-11-08T05:17:37.182Z,8.60
2022-11-08T05:20:23.953Z,8.50
2022-11-08T05:23:09.289Z,8.50
2022-11-08T05:25:40.271Z,8.50
2022-11-08T05:28:07.254Z,8.50
2022-11-08T05:30:34.239Z,8.50
2022-11-08T05:33:01.218Z,8.50
2022-11-08T05:35:28.272Z,8.50
2022-11-08T05:37:55.235Z,8.50
2022-11-08T05:40:22.187Z,8.50
2022-11-08T05:42:49.192Z,8.60
2022-11-08T05:45:16.283Z,8.60
2022-11-08T05:47:46.752Z,8.60
2022-11-08T05:50:19.100Z,8.60
2022-11-08T05:52:46.457Z,8.60
2022-11-08T05:55:13.543Z,8.60
2022-11-08T05:57:43.866Z,8.60
2022-11-08T06:00:12.505Z,8.60
2022-11-08T06:02:40.073Z,8.60
2022-11-08T06:05:08.690Z,8.60
2022-11-08T06:07:36.938Z,8.60
2022-11-08T06:10:04.785Z,8.60
2022-11-08T06:12:31.895Z,8.60
2022-11-08T06:14:58.910Z,8.60
2022-11-08T06:17:26.288Z,8.60
2022-11-08T06:19:56.281Z,8.60
2022-11-08T06:22:23.305Z,8.60
2022-11-08T06:24:50.305Z,8.70
2022-11-08T06:27:17.377Z,8.70
2022-11-08T06:29:44.400Z,8.70
2022-11-08T06:32:11.583Z,8.80
2022-11-08T06:34:38.571Z,8.80
2022-11-08T06:37:05.695Z,8.90
2022-11-08T06:39:32.976Z,8.90
2022-11-08T06:42:01.008Z,8.90
2022-11-08T06:44:27.996Z,8.90
2022-11-08T06:46:57.691Z,9.00
2022-11-08T06:49:24.748Z,9.00
2022-11-08T06:51:52.753Z,9.10
2022-11-08T06:54:23.199Z,9.20
2022-11-08T06:56:55.795Z,9.40
2022-11-08T06:59:23.349Z,9.70
2022-11-08T07:01:50.555Z,10.10
2022-11-08T07:04:17.665Z,10.40
2022-11-08T07:06:45.098Z,10.70
2022-11-08T07:09:12.117Z,11.00
2022-11-08T07:11:39.077Z,11.30
2022-11-08T07:14:06.038Z,11.30
2022-11-08T07:16:33.046Z,11.20
2022-11-08T07:19:00.113Z,11.10
2022-11-08T07:21:27.102Z,11.20
2022-11-08T07:23:54.108Z,11.40
2022-11-08T07:26:21.103Z,11.50
2022-11-08T07:28:48.089Z,11.70
2022-11-08T07:31:16.578Z,11.80
2022-11-08T07:33:43.588Z,11.90
2022-11-08T07:36:10.581Z,12.00
2022-11-08T07:38:37.565Z,12.10
2022-11-08T07:41:04.573Z,12.10
2022-11-08T07:43:31.664Z,12.20
2022-11-08T07:46:09.249Z,12.20
2022-11-08T07:48:36.244Z,12.30
2022-11-08T07:51:03.383Z,12.30
2022-11-08T07:53:30.664Z,12.30
2022-11-08T07:55:58.378Z,12.40
2022-11-08T07:58:25.908Z,12.50
2022-11-08T08:00:52.925Z,12.60
2022-11-08T08:03:20.302Z,12.60
2022-11-08T08:05:57.927Z,12.70
2022-11-08T08:08:27.747Z,12.80
2022-11-08T08:11:00.397Z,12.90
2022-11-08T08:13:28.108Z,13.00
2022-11-08T08:15:59.117Z,13.10
2022-11-08T08:18:26.181Z,13.20
2022-11-08T08:20:53.104Z,13.30
2022-11-08T08:23:20.261Z,13.50
2022-11-08T08:25:47.386Z,13.60
2022-11-08T08:28:14.348Z,13.70
2022-11-08T08:30:41.389Z,13.80
2022-11-08T08:33:29.813Z,13.90
2022-11-08T08:35:57.300Z,14.10
2022-11-08T08:38:24.224Z,14.30
2022-11-08T08:40:51.848Z,14.40
2022-11-08T08:43:19.644Z,14.60
2022-11-08T08:45:47.009Z,14.70
2022-11-08T08:48:13.939Z,14.80
2022-11-08T08:50:41.517Z,15.00
2022-11-08T08:53:08.486Z,15.10
2022-11-08T08:55:35.574Z,15.10
2022-11-08T08:58:02.688Z,15.20
2022-11-08T09:03:16.848Z,15.40
2022-11-08T09:05:46.777Z,15.50
2022-11-08T09:08:14.778Z,15.60
2022-11-08T09:10:41.936Z,15.70
2022-11-08T09:13:09.197Z,15.80
2022-11-08T09:15:36.398Z,15.80
2022-11-08T09:18:03.833Z,15.90
2022-11-08T09:20:30.889Z,15.90
2022-11-08T09:23:02.711Z,15.90
2022-11-08T09:25:29.877Z,15.90
2022-11-08T09:27:56.888Z,15.90
2022-11-08T09:30:23.923Z,15.90
2022-11-08T09:33:01.962Z,16.00
2022-11-08T09:35:30.240Z,16.00
2022-11-08T09:37:58.106Z,16.10
2022-11-08T09:40:46.914Z,16.20
2022-11-08T09:43:22.854Z,16.30
2022-11-08T09:45:52.998Z,16.40
2022-11-08T09:48:28.826Z,16.50
2022-11-08T09:50:59.127Z,16.50
2022-11-08T09:53:59.256Z,16.60
2022-11-08T09:56:32.008Z,16.70
2022-11-08T09:59:19.129Z,16.80
2022-11-08T10:01:46.251Z,16.90
2022-11-08T10:04:17.071Z,17.10
2022-11-08T10:07:02.240Z,17.20
2022-11-08T10:10:04.228Z,17.30
2022-11-08T10:12:50.002Z,17.40
2022-11-08T10:15:33.744Z,17.50
2022-11-08T10:18:03.412Z,17.60
2022-11-08T10:20:53.442Z,17.60
2022-11-08T10:23:36.883Z,17.70
2022-11-08T10:26:12.097Z,17.70
2022-11-08T10:28:44.917Z,17.80
2022-11-08T10:31:13.603Z,17.80
2022-11-08T10:33:59.024Z,17.80
2022-11-08T10:36:38.274Z,17.80
2022-11-08T10:39:21.289Z,17.70
2022-11-08T10:42:00.202Z,17.70
2022-11-08T10:44:28.950Z,17.60
2022-11-08T10:47:01.925Z,17.60
2022-11-08T10:49:40.683Z,17.50
2022-11-08T10:52:32.440Z,17.40
2022-11-08T10:55:01.324Z,17.40
2022-11-08T10:57:28.252Z,17.40
2022-11-08T10:59:56.710Z,17.40
2022-11-08T11:02:26.006Z,17.40
2022-11-08T11:04:54.259Z,17.40
2022-11-08T11:07:44.048Z,17.50
2022-11-08T11:10:22.576Z,17.60
2022-11-08T11:12:51.756Z,17.70
2022-11-08T11:15:19.004Z,17.70
2022-11-08T11:17:46.842Z,17.80
2022-11-08T11:20:23.076Z,17.90
2022-11-08T11:22:52.144Z,18.00
2022-11-08T11:25:23.805Z,18.10
2022-11-08T11:28:14.012Z,18.20
2022-11-08T11:30:42.185Z,18.30
2022-11-08T11:33:09.118Z,18.30
2022-11-08T11:35:49.606Z,18.30
2022-11-08T11:39:08.606Z,18.30
2022-11-08T11:42:30.968Z,18.30
2022-11-08T11:45:16.864Z,18.20
2022-11-08T11:47:55.243Z,18.20
2022-11-08T11:50:40.155Z,18.20
2022-11-08T11:53:24.672Z,18.30
2022-11-08T11:56:10.193Z,18.30
2022-11-08T11:59:08.686Z,18.40
2022-11-08T12:01:47.478Z,18.50
2022-11-08T12:04:26.363Z,18.50
2022-11-08T12:07:15.651Z,18.60
2022-11-08T12:09:56.485Z,18.70
2022-11-08T12:12:52.660Z,18.80
2022-11-08T12:15:25.593Z,19.00
2022-11-08T12:17:52.525Z,19.10
2022-11-08T12:20:26.959Z,19.10
2022-11-08T12:23:15.469Z,19.10
2022-11-08T12:25:45.395Z,19.10
2022-11-08T12:28:42.713Z,19.10
2022-11-08T12:31:28.440Z,19.10
2022-11-08T12:34:10.570Z,19.00
2022-11-08T12:36:53.069Z,18.90
2022-11-08T12:39:28.857Z,18.90
2022-11-08T12:42:11.072Z,18.90
2022-11-08T12:45:19.133Z,18.90
2022-11-08T12:47:57.011Z,18.90
2022-11-08T12:50:35.673Z,18.90
2022-11-08T12:53:02.615Z,18.90
2022-11-08T12:55:35.798Z,18.90
2022-11-08T12:58:21.280Z,18.80
2022-11-08T13:00:52.390Z,18.80
2022-11-08T13:04:06.404Z,18.80
2022-11-08T13:06:48.613Z,18.90
2022-11-08T13:09:46.643Z,18.90
2022-11-08T13:12:44.337Z,18.90
2022-11-08T13:15:17.231Z,19.00
2022-11-08T13:18:07.187Z,18.90
2022-11-08T13:20:46.161Z,18.90
2022-11-08T13:23:24.576Z,18.80
2022-11-08T13:25:52.534Z,18.80
2022-11-08T13:28:38.123Z,18.80
2022-11-08T13:31:41.044Z,18.80
2022-11-08T13:34:14.439Z,18.80
2022-11-08T13:37:02.015Z,18.80
2022-11-08T13:39:52.267Z,18.80
2022-11-08T13:42:19.177Z,18.70
2022-11-08T13:44:55.257Z,18.70
2022-11-08T13:47:34.531Z,18.60
2022-11-08T13:50:29.388Z,18.60
2022-11-08T13:53:23.493Z,18.70
2022-11-08T13:55:59.303Z,18.60
2022-11-08T13:58:42.512Z,18.50
2022-11-08T14:01:18.463Z,18.50
2022-11-08T14:03:48.267Z,18.50
2022-11-08T14:06:41.842Z,18.50
2022-11-08T14:09:35.649Z,18.60
2022-11-08T14:12:09.373Z,18.60
2022-11-08T14:14:42.510Z,18.60
2022-11-08T14:17:19.674Z,18.60
2022-11-08T14:19:47.985Z,18.60
2022-11-08T14:22:24.745Z,18.60
2022-11-08T14:24:53.622Z,18.50
2022-11-08T14:27:38.301Z,18.50
2022-11-08T14:30:14.116Z,18.50
2022-11-08T14:32:41.108Z,18.40
2022-11-08T14:35:16.641Z,18.40
2022-11-08T14:37:44.214Z,18.30
2022-11-08T14:40:22.990Z,18.30
2022-11-08T14:42:51.169Z,18.20
2022-11-08T14:45:24.643Z,18.20
2022-11-08T14:48:00.217Z,18.20
2022-11-08T14:50:31.503Z,18.10
2022-11-08T14:53:21.577Z,18.10
2022-11-08T14:56:01.301Z,18.00
2022-11-08T14:58:29.529Z,18.00
2022-11-08T15:00:57.858Z,17.90
2022-11-08T15:03:29.995Z,17.90
2022-11-08T15:06:00.216Z,17.90
2022-11-08T15:08:33.312Z,17.80
2022-11-08T15:11:12.602Z,17.80
2022-11-08T15:13:55.429Z,17.70
2022-11-08T15:16:22.759Z,17.70
2022-11-08T15:18:50.366Z,17.60
2022-11-08T15:21:29.627Z,17.50
2022-11-08T15:24:14.976Z,17.40
2022-11-08T15:27:01.778Z,17.30
2022-11-08T15:29:28.797Z,17.20
2022-11-08T15:32:01.448Z,17.10
2022-11-08T15:34:39.803Z,17.10
2022-11-08T15:37:28.582Z,17.00
2022-11-08T15:39:56.422Z,16.90
2022-11-08T15:42:23.602Z,16.80
2022-11-08T15:45:00.387Z,16.80
2022-11-08T15:47:39.670Z,16.70
2022-11-08T15:50:20.188Z,16.60
2022-11-08T15:52:49.643Z,16.50
2022-11-08T15:55:21.615Z,16.50
2022-11-08T15:57:49.554Z,16.40
2022-11-08T16:00:22.721Z,16.30
2022-11-08T16:02:50.194Z,16.20
2022-11-08T16:05:25.624Z,16.10
2022-11-08T16:07:53.583Z,16.10
2022-11-08T16:10:30.807Z,16.00
2022-11-08T16:13:01.541Z,15.90
2022-11-08T16:15:32.209Z,15.90
2022-11-08T16:18:00.292Z,15.80
2022-11-08T16:20:27.898Z,15.70
2022-11-08T16:22:56.752Z,15.60
2022-11-08T16:25:24.966Z,15.50
2022-11-08T16:28:03.619Z,15.40
2022-11-08T16:30:33.679Z,15.30
2022-11-08T16:33:01.220Z,15.30
2022-11-08T16:35:28.187Z,15.20
2022-11-08T16:37:55.136Z,15.20
2022-11-08T16:40:24.551Z,15.10
2022-11-08T16:42:53.188Z,15.10
2022-11-08T16:45:43.501Z,15.00
2022-11-08T16:48:18.586Z,15.00
2022-11-08T16:50:46.101Z,15.00
2022-11-08T16:53:21.385Z,14.90
2022-11-08T16:55:48.405Z,14.80
2022-11-08T16:58:15.612Z,14.80
2022-11-08T17:00:44.305Z,14.70
2022-11-08T17:03:18.807Z,14.70
2022-11-08T17:05:45.830Z,14.60
2022-11-08T17:08:12.809Z,14.60
2022-11-08T17:10:40.131Z,14.60
2022-11-08T17:13:07.290Z,14.50
2022-11-08T17:15:34.255Z,14.50
2022-11-08T17:18:03.112Z,14.40
2022-11-08T17:20:30.149Z,14.40
2022-11-08T17:22:57.126Z,14.40
2022-11-08T17:25:24.915Z,14.30
2022-11-08T17:27:52.496Z,14.30
2022-11-08T17:30:25.435Z,14.20
2022-11-08T17:32:54.128Z,14.20
2022-11-08T17:35:21.408Z,14.20
2022-11-08T17:37:48.360Z,14.10
2022-11-08T17:40:15.396Z,14.10
2022-11-08T17:42:42.379Z,14.00
2022-11-08T17:45:10.783Z,13.90
2022-11-08T17:47:38.180Z,13.90
2022-11-08T17:50:06.504Z,13.80
2022-11-08T17:52:33.768Z,13.80
2022-11-08T17:55:00.774Z,13.70
2022-11-08T17:57:28.405Z,13.70
2022-11-08T17:59:55.463Z,13.70
2022-11-08T18:02:22.567Z,13.60
2022-11-08T18:04:49.525Z,13.60
2022-11-08T18:07:16.657Z,13.60
2022-11-08T18:09:43.690Z,13.60
2022-11-08T18:12:10.676Z,13.50
2022-11-08T18:14:37.644Z,13.50
2022-11-08T18:17:05.130Z,13.50
2022-11-08T18:19:32.278Z,13.50
2022-11-08T18:22:00.460Z,13.60
2022-11-08T18:24:27.437Z,13.60
2022-11-08T18:26:54.403Z,13.70
2022-11-08T18:29:21.725Z,13.70
2022-11-08T18:31:48.725Z,13.70
2022-11-08T18:34:15.751Z,13.70
2022-11-08T18:36:42.736Z,13.70
2022-11-08T18:39:09.686Z,13.70
2022-11-08T18:41:36.783Z,13.70
2022-11-08T18:44:05.983Z,13.60
2022-11-08T18:46:36.548Z,13.60
2022-11-08T18:49:05.959Z,13.50
2022-11-08T18:51:33.064Z,13.50
2022-11-08T18:54:00.206Z,13.40
2022-11-08T18:56:27.214Z,13.30
2022-11-08T18:58:54.429Z,13.30
2022-11-08T19:01:21.545Z,13.20
2022-11-08T19:03:48.751Z,13.20
2022-11-08T19:06:15.743Z,13.10
2022-11-08T19:08:42.823Z,13.10
2022-11-08T19:11:11.960Z,13.10
2022-11-08T19:13:40.544Z,13.00
2022-11-08T19:16:14.427Z,13.00
2022-11-08T19:18:42.446Z,13.00
2022-11-08T19:21:24.305Z,12.90
2022-11-08T19:23:51.909Z,12.90
2022-11-08T19:26:21.856Z,12.80
2022-11-08T19:28:49.801Z,12.80
2022-11-08T19:31:19.390Z,12.80
2022-11-08T19:33:47.777Z,12.80
2022-11-08T19:36:18.055Z,12.80
2022-11-08T19:38:45.566Z,12.70
2022-11-08T19:41:18.558Z,12.80
2022-11-08T19:43:46.712Z,12.70
2022-11-08T19:46:22.426Z,12.70
2022-11-08T19:48:51.272Z,12.70
2022-11-08T19:51:21.461Z,12.60
2022-11-08T19:53:48.971Z,12.60
2022-11-08T19:56:18.391Z,12.50
2022-11-08T19:58:46.125Z,12.50
2022-11-08T20:01:21.327Z,12.50
2022-11-08T20:03:48.816Z,12.40
2022-11-08T20:06:19.751Z,12.40
2022-11-08T20:08:52.638Z,12.40
2022-11-08T20:11:27.764Z,12.40
2022-11-08T20:13:55.128Z,12.30
2022-11-08T20:16:27.831Z,12.20
2022-11-08T20:18:57.495Z,12.20
2022-11-08T20:21:33.378Z,12.20
2022-11-08T20:24:00.907Z,12.20
2022-11-08T20:26:28.091Z,12.20
2022-11-08T20:28:57.048Z,12.10
2022-11-08T20:31:25.433Z,12.10
2022-11-08T20:33:53.863Z,12.10
2022-11-08T20:36:23.643Z,12.10
2022-11-08T20:38:54.764Z,12.10
2022-11-08T20:41:21.832Z,12.10
2022-11-08T20:43:48.817Z,12.20
2022-11-08T20:46:18.081Z,12.10
2022-11-08T20:48:50.626Z,12.10
2022-11-08T20:51:19.362Z,12.10
2022-11-08T20:53:46.749Z,12.10
2022-11-08T20:56:17.586Z,12.10
2022-11-08T20:58:45.887Z,12.10
2022-11-08T21:01:16.125Z,12.00
2022-11-08T21:03:44.856Z,12.10
2022-11-08T21:06:14.424Z,12.00
2022-11-08T21:11:30.310Z,11.90
2022-11-08T21:13:58.021Z,11.90
2022-11-08T21:16:47.064Z,11.90
2022-11-08T21:19:11.991Z,11.80
2022-11-08T21:21:38.928Z,11.80
2022-11-08T21:24:06.224Z,11.70
2022-11-08T21:26:36.468Z,11.70
2022-11-08T21:29:04.591Z,11.70
2022-11-08T21:31:32.094Z,11.70
2022-11-08T21:34:00.076Z,11.70
2022-11-08T21:36:29.054Z,11.80
2022-11-08T21:38:56.181Z,11.70
2022-11-08T21:41:23.247Z,11.80
2022-11-08T21:43:50.214Z,11.70
2022-11-08T21:46:20.349Z,11.70
2022-11-08T21:48:52.391Z,11.70
2022-11-08T21:51:19.418Z,11.60
2022-11-08T21:53:54.052Z,11.70
2022-11-08T21:56:27.828Z,11.60
2022-11-08T21:58:54.857Z,11.60
2022-11-08T22:01:26.988Z,11.50
2022-11-08T22:03:56.910Z,11.50
2022-11-08T22:06:24.184Z,11.50
2022-11-08T22:08:51.462Z,11.50
2022-11-08T22:11:18.749Z,11.50
2022-11-08T22:13:45.780Z,11.50
2022-11-08T22:16:12.823Z,11.40
2022-11-08T22:21:38.947Z,11.40
2022-11-08T22:24:14.398Z,11.40
2022-11-08T22:26:42.030Z,11.40
2022-11-08T22:29:09.594Z,11.30
2022-11-08T22:31:37.056Z,11.20
2022-11-08T22:34:05.213Z,11.20
2022-11-08T22:36:32.592Z,11.20
2022-11-08T22:38:59.660Z,11.10
2022-11-08T22:41:27.021Z,11.10
2022-11-08T22:43:54.001Z,11.10
2022-11-08T22:46:21.051Z,11.10
2022-11-08T22:48:47.990Z,11.10
2022-11-08T22:51:15.491Z,11.10
2022-11-08T22:53:42.995Z,11.10
2022-11-08T22:56:11.644Z,11.10
2022-11-08T22:58:39.108Z,11.10
2022-11-08T23:01:07.250Z,11.20
2022-11-08T23:03:34.208Z,11.20
2022-11-08T23:06:01.205Z,11.20
2022-11-08T23:08:29.110Z,11.20
2022-11-08T23:11:17.120Z,11.30
2022-11-08T23:14:02.905Z,11.40
2022-11-08T23:16:34.962Z,11.40
2022-11-08T23:19:24.775Z,11.40
2022-11-08T23:22:11.199Z,11.40
2022-11-08T23:24:38.613Z,11.40
2022-11-08T23:27:24.504Z,11.50
2022-11-08T23:30:10.408Z,11.50
2022-11-08T23:32:43.661Z,11.50
2022-11-08T23:35:12.189Z,11.50
2022-11-08T23:37:39.339Z,11.50
2022-11-08T23:40:26.676Z,11.60
2022-11-08T23:43:41.648Z,11.60
2022-11-08T23:46:12.762Z,11.60
2022-11-08T23:48:40.690Z,11.60
2022-11-08T23:51:08.025Z,11.60
2022-11-08T23:53:37.116Z,11.70
2022-11-08T23:56:05.157Z,11.70
2022-11-08T23:58:32.550Z,11.70
